Time;durP1;ratioP1;P1;durP2;ratioP2;P2;SDS_P1;SDS_P2;PMS_P1;PMS_P2;Temp;Humidity;BMP_temperature;BMP_pressure;BME280_temperature;BME280_humidity;BME280_pressure;Samples;Min_cycle;Max_cycle;Signal;HPM_P1;HPM_P2
2024/02/12 00:00:50;;;;;;;9.60;6.88;;;7.80;99.90;;;;;;4949498;28;20125;-72
2024/02/12 00:03:18;;;;;;;6.50;5.88;;;7.80;99.90;;;;;;4969569;28;20030;-73
2024/02/12 00:05:46;;;;;;;7.05;6.00;;;7.80;99.90;;;;;;4981892;28;20231;-73
2024/02/12 00:08:15;;;;;;;6.78;5.70;;;7.80;99.90;;;;;;4953746;28;20043;-73
2024/02/12 00:10:42;;;;;;;5.90;5.30;;;7.80;99.90;;;;;;4946960;28;20043;-74
2024/02/12 00:13:10;;;;;;;6.75;6.03;;;7.90;99.90;;;;;;4952137;28;20125;-72
2024/02/12 00:15:38;;;;;;;7.30;5.88;;;7.90;99.90;;;;;;4950714;28;20051;-74
2024/02/12 00:18:05;;;;;;;9.77;7.03;;;7.90;99.90;;;;;;4949714;28;20082;-71
2024/02/12 00:20:33;;;;;;;6.95;5.45;;;7.80;99.90;;;;;;4942773;28;20058;-72
2024/02/12 00:23:01;;;;;;;11.88;6.45;;;7.90;99.90;;;;;;4948220;28;20129;-72
2024/02/12 00:25:33;;;;;;;8.02;5.45;;;7.80;99.90;;;;;;4946165;28;20047;-72
2024/02/12 00:28:00;;;;;;;13.18;5.85;;;7.80;99.90;;;;;;4930114;28;20039;-72
2024/02/12 00:30:26;;;;;;;9.05;5.65;;;7.70;99.90;;;;;;4952499;28;20605;-73
2024/02/12 00:32:54;;;;;;;7.85;4.88;;;7.80;99.90;;;;;;4936462;28;20054;-73
2024/02/12 00:35:22;;;;;;;4.28;3.63;;;7.80;99.90;;;;;;4933652;28;20129;-72
2024/02/12 00:37:50;;;;;;;5.50;3.47;;;7.70;99.90;;;;;;4946006;28;20053;-73
2024/02/12 00:40:18;;;;;;;11.25;3.85;;;7.70;99.90;;;;;;4947786;28;20574;-72
2024/02/12 00:42:44;;;;;;;4.93;4.07;;;7.70;99.90;;;;;;4942416;28;20055;-73
2024/02/12 00:45:11;;;;;;;6.35;4.18;;;7.70;99.90;;;;;;4951469;28;20057;-73
2024/02/12 00:47:39;;;;;;;12.27;5.07;;;7.60;99.90;;;;;;4963454;28;20399;-72
2024/02/12 00:50:08;;;;;;;6.40;4.63;;;7.60;99.90;;;;;;4934213;28;20070;-72
2024/02/12 00:52:38;;;;;;;15.27;5.20;;;7.50;99.90;;;;;;4950850;28;20043;-71
2024/02/12 00:55:06;;;;;;;7.13;5.13;;;7.60;99.90;;;;;;4947948;28;20043;-72
2024/02/12 00:57:34;;;;;;;9.23;4.55;;;7.60;99.90;;;;;;4942134;28;20078;-72
2024/02/12 01:00:12;;;;;;;7.35;4.50;;;7.60;99.90;;;;;;4949656;28;20667;-72
2024/02/12 01:02:41;;;;;;;8.40;4.68;;;7.50;99.90;;;;;;4949642;28;20057;-73
2024/02/12 01:05:09;;;;;;;8.75;5.30;;;7.50;99.90;;;;;;4949162;28;20054;-73
2024/02/12 01:07:40;;;;;;;9.15;5.00;;;7.50;99.90;;;;;;4928788;28;20051;-73
2024/02/12 01:10:07;;;;;;;8.57;5.22;;;7.50;99.90;;;;;;4917662;28;20051;-73
2024/02/12 01:12:35;;;;;;;10.63;5.05;;;7.50;99.90;;;;;;4948041;28;20110;-74
2024/02/12 01:15:02;;;;;;;16.60;6.35;;;7.50;99.90;;;;;;4952033;28;20038;-74
2024/02/12 01:17:31;;;;;;;11.90;5.97;;;7.50;99.90;;;;;;4925651;28;20055;-72
2024/02/12 01:19:58;;;;;;;9.45;6.20;;;7.50;99.90;;;;;;4934984;28;20053;-74
2024/02/12 01:22:25;;;;;;;11.07;6.10;;;7.60;99.90;;;;;;4942214;28;20051;-72
2024/02/12 01:24:53;;;;;;;13.95;6.80;;;7.60;99.90;;;;;;4950131;28;20062;-74
2024/02/12 01:27:19;;;;;;;14.60;6.85;;;7.60;99.90;;;;;;4951525;28;20046;-74
2024/02/12 01:29:49;;;;;;;17.70;7.35;;;7.60;99.90;;;;;;4962573;28;20043;-73
2024/02/12 01:32:16;;;;;;;12.82;7.57;;;7.60;99.90;;;;;;4946747;28;20047;-73
2024/02/12 01:34:45;;;;;;;13.50;6.85;;;7.60;99.90;;;;;;4949374;28;20047;-73
2024/02/12 01:37:12;;;;;;;11.18;7.10;;;7.60;99.90;;;;;;4947437;28;20047;-73
2024/02/12 01:39:39;;;;;;;12.40;7.53;;;7.60;99.90;;;;;;4943763;28;20055;-73
2024/02/12 01:42:12;;;;;;;11.57;8.18;;;7.60;99.90;;;;;;4946423;28;20055;-73
2024/02/12 01:45:16;;;;;;;11.98;8.15;;;7.70;99.90;;;;;;4943806;28;20090;-73
2024/02/12 01:47:45;;;;;;;12.90;7.70;;;7.60;99.90;;;;;;4943294;28;20050;-73
2024/02/12 01:50:13;;;;;;;15.43;7.32;;;7.60;99.90;;;;;;4951079;28;20121;-73
2024/02/12 01:52:48;;;;;;;13.13;8.43;;;7.60;99.90;;;;;;4946116;28;20047;-73
2024/02/12 01:55:17;;;;;;;13.55;7.50;;;7.60;99.90;;;;;;4946280;28;20069;-73
2024/02/12 01:57:50;;;;;;;11.85;7.05;;;7.60;99.90;;;;;;4944575;28;20051;-73
2024/02/12 02:00:23;;;;;;;12.98;7.60;;;7.60;99.90;;;;;;4945039;28;20043;-73
2024/02/12 02:03:17;;;;;;;10.75;6.63;;;7.60;99.90;;;;;;4947633;28;20118;-73
2024/02/12 02:05:45;;;;;;;8.98;6.50;;;7.50;99.90;;;;;;4938694;28;20047;-73
2024/02/12 02:08:12;;;;;;;10.40;6.82;;;7.50;99.90;;;;;;4946436;28;20461;-73
2024/02/12 02:10:39;;;;;;;11.65;7.28;;;7.50;99.90;;;;;;4931178;28;20041;-72
2024/02/12 02:13:06;;;;;;;14.38;7.70;;;7.50;99.90;;;;;;4949687;28;20061;-73
2024/02/12 02:15:34;;;;;;;8.50;7.07;;;7.60;99.90;;;;;;4930936;28;20666;-74
2024/02/12 02:18:03;;;;;;;10.90;6.85;;;7.60;99.90;;;;;;4946012;28;20132;-73
2024/02/12 02:20:30;;;;;;;16.27;7.72;;;7.60;99.90;;;;;;4963324;28;20038;-73
2024/02/12 02:22:57;;;;;;;11.52;6.65;;;7.60;99.90;;;;;;4961349;28;20049;-73
2024/02/12 02:25:24;;;;;;;14.05;7.13;;;7.60;99.90;;;;;;4944482;28;20048;-72
2024/02/12 02:27:51;;;;;;;12.75;7.78;;;7.60;99.90;;;;;;4942069;28;20035;-73
2024/02/12 02:30:19;;;;;;;11.05;6.80;;;7.70;99.90;;;;;;4949377;28;20047;-73
2024/02/12 02:32:47;;;;;;;12.18;7.53;;;7.70;99.90;;;;;;4947470;28;20105;-73
2024/02/12 02:35:14;;;;;;;10.63;6.72;;;7.60;99.90;;;;;;4950810;28;20055;-73
2024/02/12 02:37:43;;;;;;;14.32;7.93;;;7.60;99.90;;;;;;4947131;28;20051;-73
2024/02/12 02:40:10;;;;;;;10.95;7.15;;;7.70;99.90;;;;;;4947618;28;20086;-73
2024/02/12 02:42:38;;;;;;;13.30;7.53;;;7.60;99.90;;;;;;4962297;28;20051;-73
2024/02/12 02:45:09;;;;;;;13.13;7.28;;;7.60;99.90;;;;;;4942415;28;20058;-73
2024/02/12 02:47:37;;;;;;;13.98;7.28;;;7.60;99.90;;;;;;4929113;28;20841;-73
2024/02/12 02:50:05;;;;;;;14.70;7.55;;;7.60;99.90;;;;;;4933182;28;20614;-73
2024/02/12 02:52:33;;;;;;;15.35;8.30;;;7.60;99.90;;;;;;4951545;28;20051;-73
2024/02/12 02:55:04;;;;;;;10.35;7.68;;;7.70;99.90;;;;;;4950366;28;20043;-73
2024/02/12 02:57:32;;;;;;;13.55;8.40;;;7.70;99.90;;;;;;4949611;28;20038;-73
2024/02/12 02:59:59;;;;;;;13.13;8.20;;;7.70;99.90;;;;;;4945473;28;20054;-74
2024/02/12 03:02:29;;;;;;;11.77;8.65;;;7.80;99.90;;;;;;4964209;28;20062;-73
2024/02/12 03:04:56;;;;;;;20.67;8.82;;;7.70;99.90;;;;;;4947346;28;20522;-73
2024/02/12 03:07:24;;;;;;;16.15;8.90;;;7.70;99.90;;;;;;4943519;28;20047;-73
2024/02/12 03:09:50;;;;;;;13.93;8.32;;;7.70;99.90;;;;;;4941598;28;20035;-73
2024/02/12 03:12:18;;;;;;;16.08;9.27;;;7.70;99.90;;;;;;4947816;28;20894;-73
2024/02/12 03:14:44;;;;;;;16.83;9.65;;;7.70;99.90;;;;;;4939389;28;20053;-73
2024/02/12 03:17:11;;;;;;;16.77;8.40;;;7.70;99.90;;;;;;4945960;28;20057;-73
2024/02/12 03:19:39;;;;;;;18.58;9.35;;;7.80;99.90;;;;;;4944968;28;20038;-73
2024/02/12 03:22:06;;;;;;;20.08;10.18;;;7.70;99.90;;;;;;4947403;28;20043;-73
2024/02/12 03:24:33;;;;;;;19.75;11.05;;;7.60;99.90;;;;;;4946832;28;20057;-73
2024/02/12 03:27:01;;;;;;;17.63;10.48;;;7.60;99.90;;;;;;4948614;28;20047;-74
2024/02/12 03:29:32;;;;;;;17.45;10.55;;;7.60;99.90;;;;;;4929476;28;20483;-74
2024/02/12 03:31:59;;;;;;;19.10;11.10;;;7.70;99.90;;;;;;4969249;28;20046;-74
2024/02/12 03:34:29;;;;;;;25.00;13.20;;;7.70;99.90;;;;;;4956031;28;20047;-74
2024/02/12 03:36:56;;;;;;;24.23;13.02;;;7.60;99.90;;;;;;4964662;28;20054;-73
2024/02/12 03:39:26;;;;;;;25.40;12.50;;;7.60;99.90;;;;;;4958630;28;20065;-74
2024/02/12 03:41:53;;;;;;;28.17;13.25;;;7.70;99.90;;;;;;4950326;28;20047;-74
2024/02/12 03:44:20;;;;;;;27.15;14.80;;;7.70;99.90;;;;;;4954444;28;20062;-74
2024/02/12 03:46:47;;;;;;;33.25;15.65;;;7.60;99.90;;;;;;4934031;28;20120;-74
2024/02/12 04:00:40;;;;;;;;;;;7.60;99.90;;;;;;4951514;28;20047;-72
2024/02/12 04:03:08;;;;;;;45.10;20.35;;;7.70;99.90;;;;;;4952413;28;19960;-73
2024/02/12 04:05:35;;;;;;;44.17;20.58;;;7.70;99.90;;;;;;4944173;28;20047;-73
2024/02/12 04:08:04;;;;;;;54.20;22.50;;;7.60;99.90;;;;;;4932778;28;20043;-72
2024/02/12 04:10:32;;;;;;;51.72;23.08;;;7.70;99.90;;;;;;4930645;28;20051;-72
2024/02/12 04:13:00;;;;;;;66.07;26.58;;;7.60;99.90;;;;;;4952054;28;20165;-74
2024/02/12 04:15:26;;;;;;;65.13;25.85;;;7.60;99.90;;;;;;4931901;28;20129;-73
2024/02/12 04:17:54;;;;;;;68.72;30.33;;;7.70;99.90;;;;;;4963141;28;20129;-72
2024/02/12 04:20:22;;;;;;;74.55;30.92;;;7.70;99.90;;;;;;4972118;28;20110;-72
2024/02/12 04:22:52;;;;;;;79.35;32.10;;;7.60;99.90;;;;;;4961602;28;20544;-72
2024/02/12 04:25:21;;;;;;;83.78;31.50;;;7.70;99.90;;;;;;4948547;28;20055;-72
2024/02/12 04:27:50;;;;;;;74.35;30.67;;;7.70;99.90;;;;;;4945242;28;21074;-72
2024/02/12 04:30:17;;;;;;;87.75;34.25;;;7.70;99.90;;;;;;4952629;28;20128;-71
2024/02/12 04:32:47;;;;;;;79.93;32.75;;;7.60;99.90;;;;;;4946926;28;20039;-72
2024/02/12 04:35:14;;;;;;;86.03;34.47;;;7.60;99.90;;;;;;4948751;28;20055;-73
2024/02/12 04:37:44;;;;;;;89.25;36.70;;;7.50;99.90;;;;;;4942575;28;20618;-74
2024/02/12 04:40:12;;;;;;;82.57;34.63;;;7.50;99.90;;;;;;4953847;28;20050;-72
2024/02/12 04:42:39;;;;;;;70.68;31.17;;;7.50;99.90;;;;;;4950981;28;20499;-74
2024/02/12 04:45:07;;;;;;;63.53;29.35;;;7.40;99.90;;;;;;4950159;28;20108;-74
2024/02/12 04:47:33;;;;;;;68.03;28.40;;;7.40;99.90;;;;;;4949286;28;20712;-74
2024/02/12 04:50:02;;;;;;;51.58;21.83;;;7.40;99.90;;;;;;4946296;28;20146;-72
2024/02/12 04:52:30;;;;;;;49.20;21.77;;;7.30;99.90;;;;;;4943193;28;20223;-71
2024/02/12 04:54:57;;;;;;;33.17;15.93;;;7.20;99.90;;;;;;4947071;28;20388;-73
2024/02/12 04:57:24;;;;;;;30.58;15.73;;;7.10;99.90;;;;;;4953130;28;20043;-72
2024/02/12 04:59:52;;;;;;;37.13;18.23;;;7.10;99.90;;;;;;4943789;28;20054;-71
2024/02/12 05:02:20;;;;;;;30.98;16.25;;;7.10;99.90;;;;;;4926678;28;20051;-72
2024/02/12 05:04:48;;;;;;;35.60;17.67;;;7.10;99.90;;;;;;4926979;28;20055;-72
2024/02/12 05:07:16;;;;;;;36.15;18.17;;;7.10;99.90;;;;;;4946943;28;20841;-72
2024/02/12 05:09:43;;;;;;;46.47;20.00;;;7.10;99.90;;;;;;4942415;28;20456;-72
2024/02/12 05:12:10;;;;;;;49.72;21.40;;;7.10;99.90;;;;;;4951997;28;20043;-74
2024/02/12 05:14:37;;;;;;;57.97;24.55;;;7.20;99.90;;;;;;4950069;28;20049;-72
2024/02/12 05:17:05;;;;;;;55.40;25.52;;;7.20;99.90;;;;;;4945011;28;20120;-74
2024/02/12 05:22:33;;;;;;;;;;;7.20;99.90;;;;;;4947810;28;20644;-73
2024/02/12 05:25:01;;;;;;;80.72;29.80;;;7.20;99.90;;;;;;4958024;28;19945;-73
2024/02/12 05:27:28;;;;;;;100.25;36.40;;;7.20;99.90;;;;;;4949012;28;20551;-73
2024/02/12 05:29:58;;;;;;;114.32;40.08;;;7.20;99.90;;;;;;4948255;28;20051;-73
2024/02/12 05:32:27;;;;;;;105.30;42.42;;;7.20;99.90;;;;;;4931762;28;20059;-74
2024/02/12 05:34:55;;;;;;;106.15;40.85;;;7.20;99.90;;;;;;4929044;28;20051;-74
2024/02/12 05:37:23;;;;;;;119.63;43.95;;;7.20;99.90;;;;;;4969724;28;20051;-74
2024/02/12 05:39:50;;;;;;;138.80;50.78;;;7.20;99.90;;;;;;4951687;28;20042;-74
2024/02/12 05:42:17;;;;;;;155.50;48.42;;;7.20;99.90;;;;;;4951991;28;20066;-72
2024/02/12 05:44:43;;;;;;;130.55;47.90;;;7.20;99.90;;;;;;4949196;28;20054;-73
2024/02/12 05:47:12;;;;;;;118.30;48.55;;;7.20;99.90;;;;;;4932111;28;20673;-74
2024/02/12 05:49:40;;;;;;;133.00;50.35;;;7.10;99.90;;;;;;4930497;28;20042;-72
2024/02/12 05:52:08;;;;;;;107.50;42.67;;;7.20;99.90;;;;;;4922641;28;20094;-72
2024/02/12 05:54:35;;;;;;;101.18;41.78;;;7.20;99.90;;;;;;4930240;28;20618;-73
2024/02/12 05:57:04;;;;;;;93.85;38.10;;;7.20;99.90;;;;;;4928133;28;20066;-72
2024/02/12 05:59:32;;;;;;;95.32;42.03;;;7.20;99.90;;;;;;4926565;28;20397;-72
2024/02/12 06:02:02;;;;;;;99.65;44.13;;;7.20;99.90;;;;;;4919569;28;20050;-72
2024/02/12 06:04:30;;;;;;;103.05;43.22;;;7.20;99.90;;;;;;4909760;28;20044;-74
2024/02/12 06:07:00;;;;;;;103.25;44.08;;;7.20;99.90;;;;;;4928138;28;20045;-72
2024/02/12 06:09:29;;;;;;;116.13;46.75;;;7.10;99.90;;;;;;4929461;28;20043;-74
2024/02/12 06:11:56;;;;;;;124.60;50.22;;;7.20;99.90;;;;;;4927107;28;20158;-72
2024/02/12 06:14:22;;;;;;;131.23;50.95;;;7.20;99.90;;;;;;4922330;28;20109;-72
2024/02/12 06:16:49;;;;;;;137.07;54.05;;;7.20;99.90;;;;;;4923718;28;20040;-73
2024/02/12 06:19:16;;;;;;;135.73;51.40;;;7.20;99.90;;;;;;4928348;28;20055;-72
2024/02/12 06:21:47;;;;;;;132.35;53.42;;;7.20;99.90;;;;;;4941467;28;20058;-73
2024/02/12 06:24:13;;;;;;;127.78;50.60;;;7.20;99.90;;;;;;4944345;28;20109;-72
2024/02/12 06:26:42;;;;;;;117.82;50.58;;;7.20;99.90;;;;;;4951591;28;20040;-72
2024/02/12 06:29:10;;;;;;;108.93;46.38;;;7.20;99.90;;;;;;4924016;28;20158;-72
2024/02/12 06:31:45;;;;;;;114.30;48.90;;;7.10;99.90;;;;;;4922738;28;20067;-72
2024/02/12 06:34:12;;;;;;;117.90;49.28;;;7.20;99.90;;;;;;4925457;28;20044;-72
2024/02/12 06:36:39;;;;;;;110.10;45.50;;;7.20;99.90;;;;;;4925911;28;20131;-72
2024/02/12 06:39:05;;;;;;;126.30;51.08;;;7.10;99.90;;;;;;4928216;28;20054;-72
2024/02/12 06:41:32;;;;;;;111.75;49.35;;;7.20;99.90;;;;;;4928923;28;20162;-72
2024/02/12 06:44:00;;;;;;;134.60;54.63;;;7.20;99.90;;;;;;4933028;28;20062;-71
2024/02/12 06:46:27;;;;;;;110.95;46.95;;;7.20;99.90;;;;;;4927954;28;20086;-72
2024/02/12 06:48:54;;;;;;;120.80;48.53;;;7.20;99.90;;;;;;4922141;28;20059;-72
2024/02/12 06:51:21;;;;;;;105.93;40.88;;;7.20;99.90;;;;;;4924932;28;20137;-72
2024/02/12 06:53:48;;;;;;;101.10;44.28;;;7.20;99.90;;;;;;4943034;28;20054;-72
2024/02/12 06:56:15;;;;;;;121.75;49.70;;;7.20;99.90;;;;;;4955598;28;20486;-73
2024/02/12 06:58:43;;;;;;;121.13;49.80;;;7.20;99.90;;;;;;4940372;28;20047;-72
2024/02/12 07:01:12;;;;;;;119.55;48.40;;;7.20;99.90;;;;;;4958944;28;20047;-72
2024/02/12 07:03:41;;;;;;;133.80;54.08;;;7.30;99.90;;;;;;4948347;28;20137;-72
2024/02/12 07:06:10;;;;;;;124.57;50.88;;;7.30;99.90;;;;;;4943740;28;20622;-72
2024/02/12 07:08:41;;;;;;;145.85;53.33;;;7.30;99.90;;;;;;4972350;28;20050;-72
2024/02/12 07:11:12;;;;;;;131.90;52.13;;;7.20;99.90;;;;;;4943811;28;20074;-72
2024/02/12 07:13:38;;;;;;;121.72;46.83;;;7.20;99.90;;;;;;4926400;28;20106;-74
2024/02/12 07:16:05;;;;;;;113.95;43.22;;;7.10;99.90;;;;;;4954180;28;20668;-73
2024/02/12 07:18:32;;;;;;;95.05;38.38;;;7.00;99.90;;;;;;4943941;28;20062;-72
2024/02/12 07:20:59;;;;;;;105.30;46.17;;;7.10;99.90;;;;;;4947641;28;20047;-72
2024/02/12 07:23:26;;;;;;;112.88;45.63;;;7.00;99.90;;;;;;4941506;28;20142;-72
2024/02/12 07:25:53;;;;;;;113.72;45.28;;;7.00;99.90;;;;;;4942039;28;20070;-73
2024/02/12 07:28:21;;;;;;;109.47;43.88;;;7.10;99.90;;;;;;4944675;28;20039;-72
2024/02/12 07:30:48;;;;;;;99.30;43.65;;;7.10;99.90;;;;;;4956702;28;20038;-72
2024/02/12 07:33:16;;;;;;;108.32;46.42;;;7.10;99.90;;;;;;4922420;28;20078;-74
2024/02/12 07:35:43;;;;;;;119.32;46.28;;;7.10;99.90;;;;;;4940260;28;20043;-72
2024/02/12 07:38:10;;;;;;;103.85;43.88;;;7.10;99.90;;;;;;4927392;28;20490;-75
2024/02/12 07:40:38;;;;;;;106.78;45.13;;;7.10;99.90;;;;;;4925460;28;20134;-74
2024/02/12 07:43:05;;;;;;;117.43;47.20;;;7.10;99.90;;;;;;4948114;28;20658;-73
2024/02/12 07:45:36;;;;;;;114.57;45.95;;;7.10;99.90;;;;;;4948831;28;20058;-72
2024/02/12 07:48:03;;;;;;;109.30;45.63;;;7.20;99.90;;;;;;4943390;28;20047;-72
2024/02/12 07:50:31;;;;;;;103.25;44.30;;;7.10;99.90;;;;;;4943202;28;20051;-73
2024/02/12 07:52:58;;;;;;;103.85;46.53;;;7.10;99.90;;;;;;4941274;28;21541;-73
2024/02/12 07:55:25;;;;;;;103.40;45.13;;;7.10;99.90;;;;;;4928867;28;20043;-72
2024/02/12 07:57:52;;;;;;;108.28;44.05;;;7.10;99.90;;;;;;4955699;28;20810;-73
2024/02/12 08:00:18;;;;;;;102.53;43.03;;;7.10;99.90;;;;;;4943769;28;20050;-73
2024/02/12 08:02:45;;;;;;;103.07;43.28;;;7.10;99.90;;;;;;4924555;28;20047;-72
2024/02/12 08:05:14;;;;;;;102.28;40.55;;;7.00;99.90;;;;;;4939445;28;20137;-72
2024/02/12 08:07:42;;;;;;;88.72;40.85;;;7.00;99.90;;;;;;4948070;28;20043;-73
2024/02/12 08:10:28;;;;;;;88.22;34.92;;;7.00;99.90;;;;;;4939601;28;20047;-72
2024/02/12 08:12:54;;;;;;;74.05;37.40;;;7.00;99.90;;;;;;4942750;28;20698;-73
2024/02/12 08:15:21;;;;;;;60.70;31.48;;;6.90;99.90;;;;;;4950686;28;20050;-72
2024/02/12 08:17:48;;;;;;;62.85;30.73;;;6.90;99.90;;;;;;4945848;28;20102;-73
2024/02/12 08:20:18;;;;;;;70.70;36.70;;;6.90;99.90;;;;;;4941972;28;20658;-72
2024/02/12 08:22:45;;;;;;;63.72;34.30;;;7.00;99.90;;;;;;4944818;28;20043;-77
2024/02/12 08:25:12;;;;;;;77.80;37.05;;;7.10;99.90;;;;;;4944431;28;21621;-76
2024/02/12 08:27:39;;;;;;;82.32;39.10;;;7.10;99.90;;;;;;4948057;28;20081;-78
2024/02/12 08:30:06;;;;;;;78.35;37.80;;;7.10;99.90;;;;;;4947253;28;20045;-77
2024/02/12 08:32:33;;;;;;;85.97;42.10;;;7.20;99.90;;;;;;4948601;28;20051;-77
2024/02/12 08:35:05;;;;;;;79.38;39.58;;;7.20;99.90;;;;;;4950392;28;20995;-76
2024/02/12 08:37:32;;;;;;;83.90;40.50;;;7.20;99.90;;;;;;4945975;28;20113;-77
2024/02/12 08:39:58;;;;;;;92.57;41.08;;;7.20;99.90;;;;;;4941176;28;20047;-76
2024/02/12 08:42:26;;;;;;;91.38;44.17;;;7.10;99.90;;;;;;4950126;28;20050;-76
2024/02/12 08:44:53;;;;;;;94.28;41.85;;;7.10;99.90;;;;;;4945942;28;20097;-77
2024/02/12 08:47:22;;;;;;;105.30;49.05;;;7.10;99.90;;;;;;4950065;28;20062;-76
2024/02/12 08:49:49;;;;;;;100.72;48.00;;;7.10;99.90;;;;;;4935376;28;20146;-77
2024/02/12 08:52:17;;;;;;;100.35;43.08;;;7.10;99.90;;;;;;4962890;28;20047;-77
2024/02/12 08:54:44;;;;;;;104.85;46.63;;;7.10;99.90;;;;;;4947212;28;20047;-76
2024/02/12 08:57:14;;;;;;;93.40;42.55;;;7.00;99.90;;;;;;4950235;28;20039;-79
2024/02/12 08:59:44;;;;;;;89.88;42.58;;;7.00;99.90;;;;;;4949762;28;20039;-75
2024/02/12 09:02:11;;;;;;;94.07;46.25;;;7.10;99.90;;;;;;4933671;28;20142;-77
2024/02/12 09:04:38;;;;;;;93.82;45.17;;;7.10;99.90;;;;;;4936874;28;20043;-77
2024/02/12 09:07:05;;;;;;;101.07;45.35;;;7.10;99.90;;;;;;4961298;28;20138;-75
2024/02/12 09:09:32;;;;;;;100.55;47.33;;;7.10;99.90;;;;;;4957359;28;20043;-77
2024/02/12 09:11:59;;;;;;;89.22;44.28;;;7.20;99.90;;;;;;4955887;28;20046;-77
2024/02/12 09:14:26;;;;;;;98.88;46.67;;;7.20;99.90;;;;;;4953982;28;20042;-77
2024/02/12 09:16:53;;;;;;;100.40;46.58;;;7.20;99.90;;;;;;4953124;28;20474;-76
2024/02/12 09:19:20;;;;;;;96.85;49.05;;;7.20;99.90;;;;;;4950368;28;20146;-77
2024/02/12 09:21:47;;;;;;;96.35;46.60;;;7.30;99.90;;;;;;4967299;28;20039;-76
2024/02/12 09:24:14;;;;;;;99.03;45.65;;;7.20;99.90;;;;;;4950952;28;20059;-75
2024/02/12 09:26:41;;;;;;;92.35;46.05;;;7.30;99.90;;;;;;4935661;28;20039;-76
2024/02/12 09:29:08;;;;;;;97.35;46.97;;;7.30;99.90;;;;;;4931350;28;20057;-76
2024/02/12 09:31:35;;;;;;;102.00;46.50;;;7.20;99.90;;;;;;4929306;28;20118;-76
2024/02/12 09:34:02;;;;;;;105.28;46.33;;;7.10;99.90;;;;;;4932488;28;20670;-76
2024/02/12 09:36:29;;;;;;;103.25;47.63;;;7.20;99.90;;;;;;4943745;28;20051;-76
2024/02/12 09:38:56;;;;;;;111.45;48.67;;;7.10;99.90;;;;;;4946456;28;20047;-77
2024/02/12 09:41:26;;;;;;;107.95;48.30;;;7.20;99.90;;;;;;4929501;28;20094;-75
2024/02/12 09:43:57;;;;;;;104.88;47.53;;;7.20;99.90;;;;;;4933194;28;20052;-76
2024/02/12 09:46:25;;;;;;;101.32;47.03;;;7.10;99.90;;;;;;4946659;28;20055;-76
2024/02/12 09:48:52;;;;;;;100.18;48.22;;;7.20;99.90;;;;;;4950332;28;20051;-76
2024/02/12 09:51:23;;;;;;;105.80;49.30;;;7.10;99.90;;;;;;4931552;28;20039;-76
2024/02/12 09:53:55;;;;;;;101.55;46.38;;;7.20;99.90;;;;;;4933736;28;20447;-76
2024/02/12 09:56:24;;;;;;;100.65;46.70;;;7.10;99.90;;;;;;4929881;28;20551;-76
2024/02/12 09:58:51;;;;;;;92.53;42.63;;;7.20;99.90;;;;;;4929044;28;20055;-75
2024/02/12 10:01:17;;;;;;;93.65;43.65;;;7.10;99.90;;;;;;4944432;28;20055;-76
2024/02/12 10:03:44;;;;;;;96.00;45.33;;;7.10;99.90;;;;;;4933489;28;20054;-75
2024/02/12 10:06:12;;;;;;;97.43;46.42;;;7.20;99.90;;;;;;4928639;28;20039;-77
2024/02/12 10:08:40;;;;;;;97.20;42.75;;;7.20;99.90;;;;;;4948588;28;20709;-78
2024/02/12 10:11:07;;;;;;;95.28;42.90;;;7.20;99.90;;;;;;4939832;28;20043;-76
2024/02/12 10:13:34;;;;;;;95.78;44.63;;;7.20;99.90;;;;;;4950147;28;20065;-75
2024/02/12 10:16:01;;;;;;;87.22;42.92;;;7.30;99.90;;;;;;4945405;28;20050;-77
2024/02/12 10:18:28;;;;;;;96.68;44.65;;;7.30;99.90;;;;;;4951185;28;20039;-76
2024/02/12 10:20:54;;;;;;;98.22;47.00;;;7.30;99.90;;;;;;4948025;28;20057;-75
2024/02/12 10:23:21;;;;;;;100.53;48.75;;;7.30;99.90;;;;;;4951054;28;20126;-77
2024/02/12 10:25:51;;;;;;;105.15;47.33;;;7.40;99.90;;;;;;4930638;28;20056;-77
2024/02/12 10:28:19;;;;;;;102.65;48.00;;;7.30;99.90;;;;;;4932816;28;20583;-76
2024/02/12 10:30:48;;;;;;;109.88;49.50;;;7.30;99.90;;;;;;4917437;29;20054;-77
2024/02/12 10:33:16;;;;;;;105.07;46.90;;;7.20;99.90;;;;;;4946595;28;20056;-77
2024/02/12 10:35:48;;;;;;;98.63;48.72;;;7.30;99.90;;;;;;4934025;28;20123;-76
2024/02/12 10:38:16;;;;;;;106.28;45.63;;;7.30;99.90;;;;;;4943837;28;20043;-76
2024/02/12 10:40:52;;;;;;;95.10;49.30;;;7.30;99.90;;;;;;4953593;28;20226;-77
2024/02/12 10:43:23;;;;;;;96.85;48.08;;;7.40;99.90;;;;;;4950832;28;20194;-76
2024/02/12 10:45:54;;;;;;;99.78;46.45;;;7.40;99.90;;;;;;4955085;28;20043;-77
2024/02/12 10:48:21;;;;;;;100.35;48.42;;;7.40;99.90;;;;;;4945478;28;20047;-76
2024/02/12 10:50:49;;;;;;;108.32;50.42;;;7.50;99.90;;;;;;4970961;28;20047;-76
2024/02/12 10:53:19;;;;;;;107.90;47.22;;;7.50;99.90;;;;;;4942085;28;20106;-77
2024/02/12 10:55:47;;;;;;;105.05;49.38;;;7.60;99.90;;;;;;4946084;28;20039;-76
2024/02/12 10:58:14;;;;;;;96.28;49.95;;;7.60;99.90;;;;;;4966284;28;20046;-77
2024/02/12 11:00:56;;;;;;;102.55;52.55;;;7.60;99.90;;;;;;4942931;28;20039;-76
2024/02/12 11:03:34;;;;;;;84.80;43.88;;;7.50;99.90;;;;;;4934992;28;20077;-76
2024/02/12 11:06:02;;;;;;;98.60;46.65;;;7.40;99.90;;;;;;4949818;28;20071;-76
2024/02/12 11:08:34;;;;;;;97.70;48.33;;;7.40;99.90;;;;;;4934775;28;20660;-76
2024/02/12 11:11:03;;;;;;;90.30;45.75;;;7.50;99.90;;;;;;4927867;28;20051;-77
2024/02/12 11:13:34;;;;;;;84.82;44.65;;;7.60;99.90;;;;;;4935405;28;20054;-76
2024/02/12 11:16:12;;;;;;;90.25;47.35;;;7.70;99.90;;;;;;4936694;28;20467;-76
2024/02/12 11:18:39;;;;;;;92.00;46.20;;;7.90;99.90;;;;;;4951224;28;20038;-77
2024/02/12 11:21:08;;;;;;;80.13;43.38;;;7.90;99.90;;;;;;4964765;28;20039;-76
2024/02/12 11:23:35;;;;;;;90.05;44.63;;;8.00;99.90;;;;;;4942497;28;20124;-77
2024/02/12 11:26:05;;;;;;;68.65;40.70;;;8.20;99.90;;;;;;4934586;28;20048;-77
2024/02/12 11:28:33;;;;;;;76.60;43.35;;;8.10;99.90;;;;;;4935018;28;20082;-76
2024/02/12 11:30:59;;;;;;;82.78;43.97;;;8.10;99.90;;;;;;4932142;28;20943;-77
2024/02/12 11:33:27;;;;;;;81.10;43.25;;;8.20;99.90;;;;;;4945390;28;20063;-77
2024/02/12 11:36:08;;;;;;;84.63;46.17;;;8.20;99.90;;;;;;4928509;28;20054;-77
2024/02/12 11:38:37;;;;;;;68.90;43.67;;;8.20;99.90;;;;;;4928730;28;20420;-78
2024/02/12 11:41:05;;;;;;;71.90;41.20;;;8.20;99.90;;;;;;4924832;28;20515;-77
2024/02/12 11:43:33;;;;;;;76.10;44.25;;;8.10;99.90;;;;;;4930904;28;20062;-77
2024/02/12 11:46:00;;;;;;;75.72;42.67;;;8.10;99.90;;;;;;4936641;28;20134;-76
2024/02/12 11:48:29;;;;;;;78.97;44.47;;;8.10;99.90;;;;;;4966709;28;20612;-77
2024/02/12 11:50:56;;;;;;;73.95;44.70;;;8.20;99.90;;;;;;4943648;28;20055;-76
2024/02/12 11:53:23;;;;;;;75.60;42.15;;;8.30;99.90;;;;;;4932839;28;20451;-77
2024/02/12 11:55:50;;;;;;;75.47;44.67;;;8.40;99.90;;;;;;4941426;28;20070;-76
2024/02/12 11:58:17;;;;;;;72.40;44.97;;;8.50;99.90;;;;;;4945843;28;20634;-77
2024/02/12 12:00:47;;;;;;;71.07;42.75;;;8.60;99.90;;;;;;4950195;28;20546;-76
2024/02/12 12:03:14;;;;;;;65.22;43.33;;;8.60;99.90;;;;;;4948642;28;20739;-78
2024/02/12 12:05:43;;;;;;;77.03;47.70;;;8.50;99.90;;;;;;4952639;28;20114;-77
2024/02/12 12:08:10;;;;;;;76.78;45.90;;;8.50;99.90;;;;;;4950485;28;20049;-77
2024/02/12 12:10:37;;;;;;;67.57;44.58;;;8.50;99.90;;;;;;4970547;28;20043;-77
2024/02/12 12:13:04;;;;;;;73.53;44.78;;;8.50;99.90;;;;;;4972479;28;20065;-78
2024/02/12 12:15:31;;;;;;;70.13;41.40;;;8.40;99.90;;;;;;4971429;28;20905;-77
2024/02/12 12:17:58;;;;;;;63.75;40.67;;;8.40;99.90;;;;;;4956464;28;20043;-78
2024/02/12 12:20:29;;;;;;;70.97;41.25;;;8.50;99.90;;;;;;4960484;28;20134;-79
2024/02/12 12:22:57;;;;;;;67.53;40.40;;;8.40;99.90;;;;;;4958146;28;20054;-75
2024/02/12 12:25:26;;;;;;;65.15;40.88;;;8.30;99.90;;;;;;4949382;28;20065;-74
2024/02/12 12:27:53;;;;;;;78.18;44.63;;;8.20;99.90;;;;;;4947827;28;20059;-73
2024/02/12 12:30:20;;;;;;;80.78;44.97;;;8.20;99.90;;;;;;4941243;28;20046;-70
2024/02/12 12:32:50;;;;;;;78.88;41.67;;;8.00;99.90;;;;;;4925657;28;20051;-70
2024/02/12 12:35:18;;;;;;;79.78;41.83;;;7.90;99.90;;;;;;4923419;28;20067;-72
2024/02/12 12:37:45;;;;;;;81.82;46.40;;;7.90;99.90;;;;;;4928491;28;20054;-72
2024/02/12 12:40:18;;;;;;;88.03;48.05;;;8.00;99.90;;;;;;4931785;28;20308;-73
2024/02/12 12:42:47;;;;;;;89.75;46.28;;;8.10;99.90;;;;;;4944163;28;20129;-71
2024/02/12 12:45:16;;;;;;;83.22;47.35;;;8.10;99.90;;;;;;4927864;28;20063;-71
2024/02/12 12:47:43;;;;;;;77.60;44.80;;;8.20;99.90;;;;;;4928195;28;20109;-73
2024/02/12 12:50:13;;;;;;;81.50;44.90;;;8.10;99.90;;;;;;4938374;28;20048;-74
2024/02/12 12:52:41;;;;;;;84.00;44.53;;;8.20;99.90;;;;;;4933963;28;20044;-73
2024/02/12 12:55:12;;;;;;;93.18;47.75;;;8.10;99.90;;;;;;4930320;28;20046;-73
2024/02/12 12:57:45;;;;;;;44.83;27.10;;;8.10;99.90;;;;;;4925944;28;20058;-73